createdAt,value
2023-03-07T00:01:38.602Z,63.50
2023-03-07T00:04:06.562Z,64.08
2023-03-07T00:06:34.375Z,63.48
2023-03-07T00:09:03.605Z,63.80
2023-03-07T00:11:31.330Z,63.52
2023-03-07T00:14:00.415Z,63.78
2023-03-07T00:16:28.220Z,63.59
2023-03-07T00:18:56.385Z,63.86
2023-03-07T00:21:24.149Z,63.71
2023-03-07T00:23:54.213Z,63.59
2023-03-07T00:26:23.661Z,64.21
2023-03-07T00:28:53.081Z,63.94
2023-03-07T00:31:23.739Z,63.37
2023-03-07T00:33:51.571Z,63.54
2023-03-07T00:36:21.413Z,64.02
2023-03-07T00:38:49.448Z,63.45
2023-03-07T00:41:19.743Z,63.54
2023-03-07T00:43:48.099Z,63.94
2023-03-07T00:46:16.893Z,63.41
2023-03-07T00:48:46.501Z,63.67
2023-03-07T00:51:15.857Z,62.92
2023-03-07T00:53:44.772Z,62.98
2023-03-07T00:56:15.777Z,63.47
2023-03-07T00:58:44.190Z,62.81
2023-03-07T01:01:14.959Z,62.82
2023-03-07T01:03:43.068Z,63.38
2023-03-07T01:06:14.995Z,63.69
2023-03-07T01:08:43.269Z,63.51
2023-03-07T01:11:12.959Z,63.49
2023-03-07T01:13:40.921Z,63.48
2023-03-07T01:16:10.379Z,63.61
2023-03-07T01:18:38.225Z,63.13
2023-03-07T01:21:15.501Z,63.42
2023-03-07T01:23:43.312Z,63.77
2023-03-07T01:29:52.158Z,63.04
2023-03-07T01:32:19.930Z,64.11
2023-03-07T01:34:47.615Z,63.59
2023-03-07T01:37:16.665Z,63.35
2023-03-07T01:39:44.350Z,63.60
2023-03-07T01:42:12.106Z,64.10
2023-03-07T01:45:06.694Z,63.42
2023-03-07T01:47:34.435Z,63.45
2023-03-07T01:50:07.407Z,63.51
2023-03-07T01:52:40.926Z,63.76
2023-03-07T01:55:12.757Z,63.76
2023-03-07T01:57:43.851Z,62.96
2023-03-07T02:00:18.623Z,63.82
2023-03-07T02:02:52.940Z,63.61
2023-03-07T02:05:25.327Z,64.13
2023-03-07T02:07:57.015Z,63.55
2023-03-07T02:10:25.712Z,64.22
2023-03-07T02:12:54.921Z,64.27
2023-03-07T02:15:22.902Z,63.81
2023-03-07T02:17:51.124Z,64.33
2023-03-07T02:20:32.580Z,63.98
2023-03-07T02:23:04.150Z,63.43
2023-03-07T02:25:38.028Z,63.83
2023-03-07T02:28:10.425Z,64.19
2023-03-07T02:30:38.514Z,63.72
2023-03-07T02:33:06.314Z,64.45
2023-03-07T02:35:33.983Z,64.57
2023-03-07T02:38:05.810Z,64.11
2023-03-07T02:40:33.907Z,63.77
2023-03-07T02:43:05.970Z,63.60
2023-03-07T02:45:35.081Z,64.42
2023-03-07T02:48:02.822Z,64.37
2023-03-07T02:50:30.481Z,63.95
2023-03-07T02:52:58.172Z,64.21
2023-03-07T02:55:25.952Z,64.77
2023-03-07T02:57:54.454Z,63.61
2023-03-07T03:00:22.944Z,63.69
2023-03-07T03:02:52.050Z,63.76
2023-03-07T03:05:19.713Z,64.18
2023-03-07T03:07:48.512Z,64.39
2023-03-07T03:10:16.481Z,63.81
2023-03-07T03:12:44.541Z,63.81
2023-03-07T03:15:13.059Z,64.41
2023-03-07T03:17:40.869Z,63.99
2023-03-07T03:20:13.016Z,64.35
2023-03-07T03:22:41.027Z,63.84
2023-03-07T03:25:11.250Z,64.34
2023-03-07T03:27:39.853Z,64.29
2023-03-07T03:30:10.280Z,63.95
2023-03-07T03:32:38.390Z,64.39
2023-03-07T03:35:06.997Z,64.09
2023-03-07T03:37:36.140Z,64.73
2023-03-07T03:40:05.455Z,64.91
2023-03-07T03:42:33.257Z,64.93
2023-03-07T03:45:00.935Z,64.13
2023-03-07T03:47:28.640Z,64.90
2023-03-07T03:49:56.305Z,64.22
2023-03-07T03:52:24.432Z,64.46
2023-03-07T03:54:53.480Z,64.42
2023-03-07T03:57:21.158Z,64.45
2023-03-07T03:59:49.180Z,64.07
2023-03-07T04:02:17.028Z,64.84
2023-03-07T04:04:44.940Z,64.76
2023-03-07T04:07:12.654Z,64.33
2023-03-07T04:09:40.357Z,64.97
2023-03-07T04:12:09.904Z,64.69
2023-03-07T04:14:37.583Z,64.66
2023-03-07T04:17:05.335Z,64.88
2023-03-07T04:19:33.080Z,64.67
2023-03-07T04:22:00.783Z,64.32
2023-03-07T04:24:28.651Z,64.69
2023-03-07T04:26:56.334Z,64.85
2023-03-07T04:29:26.687Z,64.98
2023-03-07T04:31:54.483Z,64.46
2023-03-07T04:34:22.265Z,64.48
2023-03-07T04:36:49.977Z,65.00
2023-03-07T04:39:17.654Z,64.57
2023-03-07T04:41:45.477Z,64.80
2023-03-07T04:44:14.144Z,64.98
2023-03-07T04:46:43.220Z,64.62
2023-03-07T04:49:10.926Z,64.99
2023-03-07T04:51:38.659Z,64.79
2023-03-07T04:54:06.482Z,65.47
2023-03-07T04:56:34.172Z,64.90
2023-03-07T04:59:01.879Z,65.26
2023-03-07T05:01:29.648Z,64.85
2023-03-07T05:03:58.757Z,65.26
2023-03-07T05:06:26.482Z,65.24
2023-03-07T05:08:54.162Z,64.71
2023-03-07T05:11:21.895Z,65.02
2023-03-07T05:13:49.697Z,64.90
2023-03-07T05:16:18.424Z,65.38
2023-03-07T05:18:46.166Z,65.19
2023-03-07T05:21:15.256Z,65.40
2023-03-07T05:23:42.995Z,64.94
2023-03-07T05:26:10.718Z,64.94
2023-03-07T05:28:38.751Z,65.03
2023-03-07T05:31:07.039Z,65.61
2023-03-07T05:33:34.850Z,65.47
2023-03-07T05:36:03.796Z,65.39
2023-03-07T05:38:32.956Z,65.05
2023-03-07T05:41:00.666Z,65.25
2023-03-07T05:43:28.444Z,65.05
2023-03-07T05:45:56.217Z,65.19
2023-03-07T05:48:23.892Z,65.15
2023-03-07T05:50:51.585Z,65.70
2023-03-07T05:53:19.407Z,65.34
2023-03-07T05:55:48.504Z,64.76
2023-03-07T05:58:16.171Z,65.05
2023-03-07T06:00:43.885Z,65.32
2023-03-07T06:03:11.593Z,65.34
2023-03-07T06:05:39.306Z,66.05
2023-03-07T06:08:07.414Z,65.90
2023-03-07T06:10:35.132Z,66.01
2023-03-07T06:13:04.275Z,65.68
2023-03-07T06:15:32.076Z,65.71
2023-03-07T06:18:00.921Z,66.15
2023-03-07T06:20:28.648Z,66.13
2023-03-07T06:22:56.432Z,66.08
2023-03-07T06:25:24.120Z,65.77
2023-03-07T06:27:51.870Z,66.22
2023-03-07T06:30:21.040Z,65.46
2023-03-07T06:32:48.734Z,65.60
2023-03-07T06:35:16.515Z,65.51
2023-03-07T06:37:44.266Z,65.94
2023-03-07T06:40:12.896Z,65.26
2023-03-07T06:42:40.725Z,65.25
2023-03-07T06:45:09.229Z,65.20
2023-03-07T06:47:38.339Z,65.90
2023-03-07T06:50:06.966Z,66.10
2023-03-07T06:52:34.694Z,65.47
2023-03-07T06:55:02.385Z,65.60
2023-03-07T06:57:30.696Z,65.36
2023-03-07T06:59:58.391Z,65.39
2023-03-07T07:02:26.230Z,65.23
2023-03-07T07:04:55.395Z,65.41
2023-03-07T07:07:23.097Z,64.98
2023-03-07T07:09:50.775Z,65.30
2023-03-07T07:12:18.596Z,65.32
2023-03-07T07:14:46.382Z,65.57
2023-03-07T07:17:14.156Z,65.45
2023-03-07T07:19:41.902Z,65.61
2023-03-07T07:22:12.069Z,64.97
2023-03-07T07:24:40.984Z,65.12
2023-03-07T07:27:09.130Z,65.31
2023-03-07T07:29:37.634Z,64.96
2023-03-07T07:32:06.460Z,65.16
2023-03-07T07:34:34.273Z,64.63
2023-03-07T07:37:02.037Z,64.33
2023-03-07T07:39:31.154Z,64.40
2023-03-07T07:41:58.844Z,64.09
2023-03-07T07:44:26.707Z,64.25
2023-03-07T07:46:54.541Z,63.83
2023-03-07T07:49:23.001Z,64.06
2023-03-07T07:51:50.753Z,64.16
2023-03-07T07:54:18.501Z,64.18
2023-03-07T07:56:47.698Z,64.12
2023-03-07T07:59:15.456Z,63.74
2023-03-07T08:01:43.416Z,63.62
2023-03-07T08:04:11.250Z,63.61
2023-03-07T08:06:39.679Z,63.44
2023-03-07T08:09:07.447Z,63.51
2023-03-07T08:11:35.691Z,63.46
2023-03-07T08:14:04.821Z,63.25
2023-03-07T08:16:32.620Z,63.61
2023-03-07T08:19:00.876Z,63.04
2023-03-07T08:21:29.013Z,63.26
2023-03-07T08:23:57.056Z,63.58
2023-03-07T08:26:25.541Z,63.16
2023-03-07T08:28:53.360Z,63.08
2023-03-07T08:31:24.869Z,63.39
2023-03-07T08:33:53.220Z,62.90
2023-03-07T08:36:21.418Z,62.85
2023-03-07T08:38:52.134Z,63.05
2023-03-07T08:41:20.818Z,63.14
2023-03-07T08:43:48.584Z,62.92
2023-03-07T08:46:16.903Z,63.18
2023-03-07T08:48:46.213Z,63.07
2023-03-07T08:51:16.808Z,62.85
2023-03-07T08:53:46.190Z,62.89
2023-03-07T08:56:16.385Z,63.05
2023-03-07T08:58:44.805Z,62.67
2023-03-07T09:01:13.315Z,63.03
2023-03-07T09:03:41.615Z,63.16
2023-03-07T09:06:17.078Z,63.07
2023-03-07T09:08:45.360Z,63.26
2023-03-07T09:11:13.061Z,62.70
2023-03-07T09:13:51.531Z,62.67
2023-03-07T09:16:20.311Z,62.90
2023-03-07T09:18:48.192Z,62.48
2023-03-07T09:21:17.418Z,62.50
2023-03-07T09:23:45.171Z,62.89
2023-03-07T09:26:13.152Z,63.03
2023-03-07T09:28:41.377Z,62.55
2023-03-07T09:31:10.295Z,62.28
2023-03-07T09:33:38.732Z,62.12
2023-03-07T09:36:07.464Z,62.38
2023-03-07T09:38:37.142Z,62.89
2023-03-07T09:41:16.774Z,62.53
2023-03-07T09:43:51.504Z,62.51
2023-03-07T09:46:30.890Z,62.40
2023-03-07T09:49:17.594Z,62.12
2023-03-07T09:51:47.248Z,62.57
2023-03-07T09:54:18.354Z,62.34
2023-03-07T09:56:50.064Z,62.59
2023-03-07T09:59:23.920Z,62.65
2023-03-07T10:01:56.606Z,62.46
2023-03-07T10:04:30.232Z,62.53
2023-03-07T10:07:00.848Z,62.42
2023-03-07T10:09:30.176Z,62.20
2023-03-07T10:12:24.771Z,62.42
2023-03-07T10:15:10.310Z,62.29
2023-03-07T10:17:53.667Z,62.48
2023-03-07T10:20:30.359Z,62.04
2023-03-07T10:23:07.162Z,62.65
2023-03-07T10:25:41.933Z,62.21
2023-03-07T10:28:21.828Z,62.47
2023-03-07T10:30:52.204Z,62.39
2023-03-07T10:33:21.375Z,62.16
2023-03-07T10:35:55.405Z,62.43
2023-03-07T10:38:29.840Z,62.24
2023-03-07T10:41:02.822Z,61.75
2023-03-07T10:43:33.080Z,62.44
2023-03-07T10:46:05.779Z,62.55
2023-03-07T10:48:41.037Z,62.18
2023-03-07T10:51:22.060Z,62.24
2023-03-07T10:53:51.458Z,61.95
2023-03-07T10:56:20.604Z,62.75
2023-03-07T10:59:02.448Z,62.30
2023-03-07T11:01:31.223Z,62.60
2023-03-07T11:04:02.943Z,62.62
2023-03-07T11:06:41.412Z,62.32
2023-03-07T11:09:15.247Z,62.39
2023-03-07T11:11:49.981Z,62.66
2023-03-07T11:14:18.912Z,62.61
2023-03-07T11:16:51.052Z,62.61
2023-03-07T11:19:33.884Z,62.60
2023-03-07T11:22:03.723Z,62.55
2023-03-07T11:24:37.503Z,62.34
2023-03-07T11:27:07.540Z,62.68
2023-03-07T11:29:35.243Z,62.77
2023-03-07T11:32:11.635Z,62.95
2023-03-07T11:34:45.549Z,62.81
2023-03-07T11:37:31.203Z,62.97
2023-03-07T11:40:11.129Z,63.07
2023-03-07T11:42:46.201Z,63.12
2023-03-07T11:45:28.709Z,63.14
2023-03-07T11:48:06.026Z,63.27
2023-03-07T11:50:35.953Z,63.45
2023-03-07T11:53:24.550Z,63.13
2023-03-07T11:56:06.912Z,63.28
2023-03-07T11:58:52.800Z,63.63
2023-03-07T12:01:31.485Z,64.69
2023-03-07T12:04:29.121Z,64.62
2023-03-07T12:07:12.156Z,64.62
2023-03-07T12:09:49.016Z,63.75
2023-03-07T12:12:37.389Z,63.08
2023-03-07T12:15:25.624Z,62.90
2023-03-07T12:18:04.817Z,61.30
2023-03-07T12:20:44.261Z,61.45
2023-03-07T12:23:19.095Z,60.64
2023-03-07T12:25:50.595Z,59.78
2023-03-07T12:28:25.825Z,59.71
2023-03-07T12:31:08.175Z,59.04
2023-03-07T12:33:49.095Z,59.11
2023-03-07T12:36:24.746Z,58.71
2023-03-07T12:38:59.420Z,58.95
2023-03-07T12:41:41.220Z,58.54
2023-03-07T12:44:17.352Z,58.77
2023-03-07T12:46:51.246Z,58.20
2023-03-07T12:49:25.329Z,58.52
2023-03-07T12:51:59.014Z,58.56
2023-03-07T12:54:30.545Z,58.81
2023-03-07T12:57:03.220Z,58.43
2023-03-07T12:59:35.283Z,58.64
2023-03-07T13:02:07.308Z,58.30
2023-03-07T13:04:37.188Z,58.46
2023-03-07T13:07:10.745Z,58.12
2023-03-07T13:09:41.300Z,58.21
2023-03-07T13:12:30.086Z,58.90
2023-03-07T13:14:59.196Z,57.88
2023-03-07T13:18:02.133Z,57.85
2023-03-07T13:20:44.627Z,57.85
2023-03-07T13:23:24.563Z,57.58
2023-03-07T13:26:04.369Z,57.81
2023-03-07T13:28:46.481Z,57.74
2023-03-07T13:31:30.776Z,57.72
2023-03-07T13:34:41.471Z,58.17
2023-03-07T13:37:49.152Z,58.07
2023-03-07T13:40:39.034Z,57.80
2023-03-07T13:43:28.215Z,57.41
2023-03-07T13:45:58.858Z,57.33
2023-03-07T13:49:02.198Z,57.32
2023-03-07T13:51:30.099Z,57.75
2023-03-07T13:54:02.864Z,57.23
2023-03-07T13:56:36.142Z,57.96
2023-03-07T13:59:12.197Z,57.76
2023-03-07T14:01:46.798Z,57.94
2023-03-07T14:04:24.246Z,58.77
2023-03-07T14:07:04.025Z,58.94
2023-03-07T14:09:40.545Z,59.47
2023-03-07T14:12:16.685Z,60.26
2023-03-07T14:15:02.637Z,60.59
2023-03-07T14:17:53.606Z,61.12
2023-03-07T14:20:31.166Z,61.71
2023-03-07T14:23:13.704Z,62.19
2023-03-07T14:25:42.508Z,61.17
2023-03-07T14:28:21.469Z,60.52
2023-03-07T14:30:56.186Z,60.57
2023-03-07T14:33:31.216Z,60.17
2023-03-07T14:35:59.329Z,59.31
2023-03-07T14:38:28.706Z,58.76
2023-03-07T14:41:20.792Z,58.06
2023-03-07T14:43:58.033Z,57.75
2023-03-07T14:46:37.176Z,57.95
2023-03-07T14:49:24.712Z,57.76
2023-03-07T14:51:52.280Z,58.81
2023-03-07T14:54:25.192Z,59.26
2023-03-07T14:56:55.000Z,59.80
2023-03-07T14:59:28.825Z,60.06
2023-03-07T15:02:00.055Z,61.02
2023-03-07T15:04:31.262Z,61.15
2023-03-07T15:07:01.313Z,61.81
2023-03-07T15:09:30.365Z,62.33
2023-03-07T15:12:04.734Z,61.62
2023-03-07T15:14:41.496Z,61.87
2023-03-07T15:17:16.637Z,62.07
2023-03-07T15:19:49.687Z,61.07
2023-03-07T15:22:23.379Z,60.70
2023-03-07T15:24:52.956Z,59.25
2023-03-07T15:27:25.792Z,59.46
2023-03-07T15:29:54.062Z,59.28
2023-03-07T15:32:34.176Z,59.20
2023-03-07T15:35:05.603Z,59.62
2023-03-07T15:37:34.007Z,60.72
2023-03-07T15:40:03.494Z,61.03
2023-03-07T15:42:31.410Z,61.19
2023-03-07T15:45:00.875Z,60.81
2023-03-07T15:47:31.325Z,61.44
2023-03-07T15:50:01.848Z,60.88
2023-03-07T15:52:33.756Z,61.24
2023-03-07T15:55:05.305Z,61.58
2023-03-07T15:57:37.034Z,61.51
2023-03-07T16:00:07.890Z,61.29
2023-03-07T16:02:44.294Z,61.71
2023-03-07T16:05:37.026Z,62.02
2023-03-07T16:08:12.237Z,61.91
2023-03-07T16:10:43.605Z,61.94
2023-03-07T16:13:15.548Z,61.84
2023-03-07T16:15:43.348Z,62.08
2023-03-07T16:18:23.548Z,61.85
2023-03-07T16:20:51.286Z,61.55
2023-03-07T16:23:20.373Z,62.15
2023-03-07T16:25:48.415Z,61.68
2023-03-07T16:28:16.145Z,61.90
2023-03-07T16:30:45.416Z,61.60
2023-03-07T16:33:14.496Z,62.03
2023-03-07T16:35:42.394Z,61.35
2023-03-07T16:38:10.572Z,62.15
2023-03-07T16:40:44.123Z,61.88
2023-03-07T16:43:34.697Z,61.97
2023-03-07T16:46:04.322Z,61.78
2023-03-07T16:48:32.193Z,62.05
2023-03-07T16:50:59.902Z,61.42
2023-03-07T16:53:27.696Z,61.98
2023-03-07T16:55:59.897Z,61.89
2023-03-07T16:58:31.765Z,61.41
2023-03-07T17:00:59.844Z,62.02
2023-03-07T17:03:29.761Z,61.61
2023-03-07T17:05:57.516Z,61.31
2023-03-07T17:08:25.224Z,60.58
2023-03-07T17:10:53.773Z,60.27
2023-03-07T17:13:23.239Z,59.95
2023-03-07T17:15:51.169Z,59.62
2023-03-07T17:18:18.875Z,59.50
2023-03-07T17:20:46.571Z,59.36
2023-03-07T17:23:14.328Z,59.86
2023-03-07T17:25:42.093Z,59.56
2023-03-07T17:28:13.811Z,60.13
2023-03-07T17:30:45.130Z,59.75
2023-03-07T17:33:14.894Z,58.85
2023-03-07T17:35:42.671Z,58.99
2023-03-07T17:38:10.519Z,59.18
2023-03-07T17:40:38.681Z,59.06
2023-03-07T17:43:06.414Z,58.52
2023-03-07T17:45:34.123Z,58.10
2023-03-07T17:48:03.365Z,57.46
2023-03-07T17:50:31.059Z,57.03
2023-03-07T17:52:59.350Z,57.08
2023-03-07T17:55:27.108Z,57.00
2023-03-07T17:57:54.839Z,57.20
2023-03-07T18:00:23.652Z,57.64
2023-03-07T18:02:51.976Z,57.87
2023-03-07T18:05:21.010Z,58.65
2023-03-07T18:07:51.404Z,58.89
2023-03-07T18:10:19.169Z,59.72
2023-03-07T18:12:47.357Z,59.51
2023-03-07T18:15:17.714Z,59.96
2023-03-07T18:17:48.655Z,59.88
2023-03-07T18:20:18.892Z,60.24
2023-03-07T18:22:48.105Z,60.16
2023-03-07T18:25:17.682Z,60.14
2023-03-07T18:27:46.029Z,59.64
2023-03-07T18:30:15.946Z,59.49
2023-03-07T18:32:45.562Z,58.95
2023-03-07T18:35:16.623Z,58.20
2023-03-07T18:37:45.411Z,57.78
2023-03-07T18:40:15.808Z,56.34
2023-03-07T18:42:43.743Z,56.06
2023-03-07T18:45:12.350Z,55.79
2023-03-07T18:47:40.079Z,56.01
2023-03-07T18:50:09.352Z,55.68
2023-03-07T18:52:37.121Z,55.09
2023-03-07T18:55:05.249Z,55.58
2023-03-07T18:57:34.412Z,55.57
2023-03-07T19:00:02.160Z,56.89
2023-03-07T19:02:30.136Z,56.88
2023-03-07T19:04:57.868Z,57.97
2023-03-07T19:07:25.621Z,58.14
2023-03-07T19:09:53.639Z,58.13
2023-03-07T19:12:21.709Z,58.81
2023-03-07T19:14:50.765Z,58.72
2023-03-07T19:17:18.481Z,58.90
2023-03-07T19:19:46.868Z,59.35
2023-03-07T19:22:14.673Z,59.10
2023-03-07T19:24:44.662Z,58.59
2023-03-07T19:27:12.945Z,59.46
2023-03-07T19:29:40.692Z,58.85
2023-03-07T19:32:09.928Z,58.96
2023-03-07T19:34:37.744Z,58.99
2023-03-07T19:37:05.523Z,59.34
2023-03-07T19:39:33.287Z,59.74
2023-03-07T19:42:01.005Z,59.03
2023-03-07T19:44:28.783Z,59.56
2023-03-07T19:46:56.571Z,60.01
2023-03-07T19:49:26.879Z,59.55
2023-03-07T19:51:54.584Z,59.73
2023-03-07T19:54:22.664Z,59.65
2023-03-07T19:56:50.456Z,60.02
2023-03-07T19:59:18.450Z,59.81
2023-03-07T20:01:46.643Z,59.96
2023-03-07T20:04:16.016Z,59.39
2023-03-07T20:06:45.344Z,59.80
2023-03-07T20:09:14.611Z,59.53
2023-03-07T20:11:43.893Z,59.79
2023-03-07T20:14:12.785Z,60.25
2023-03-07T20:16:40.552Z,60.19
2023-03-07T20:19:10.284Z,60.28
2023-03-07T20:21:38.812Z,60.02
2023-03-07T20:24:09.033Z,59.80
2023-03-07T20:26:39.115Z,59.89
2023-03-07T20:29:08.534Z,59.75
2023-03-07T20:31:36.942Z,60.23
2023-03-07T20:34:04.785Z,60.31
2023-03-07T20:36:34.143Z,60.14
2023-03-07T20:39:03.716Z,59.81
2023-03-07T20:41:34.009Z,60.17
2023-03-07T20:44:03.511Z,60.66
2023-03-07T20:46:32.215Z,60.03
2023-03-07T20:49:01.683Z,60.26
2023-03-07T20:51:31.917Z,60.46
2023-03-07T20:54:01.697Z,60.70
2023-03-07T20:56:32.849Z,60.50
2023-03-07T20:59:01.187Z,60.45
2023-03-07T21:01:31.718Z,60.77
2023-03-07T21:04:05.949Z,60.58
2023-03-07T21:06:34.539Z,60.56
2023-03-07T21:09:03.557Z,60.85
2023-03-07T21:11:32.814Z,60.77
2023-03-07T21:14:00.530Z,60.48
2023-03-07T21:16:29.184Z,60.74
2023-03-07T21:19:01.214Z,60.61
2023-03-07T21:21:30.493Z,60.74
2023-03-07T21:23:58.504Z,60.62
2023-03-07T21:26:27.429Z,60.79
2023-03-07T21:28:57.581Z,60.64
2023-03-07T21:31:27.399Z,60.71
2023-03-07T21:33:56.627Z,60.65
2023-03-07T21:36:26.974Z,60.93
2023-03-07T21:38:55.389Z,60.98
2023-03-07T21:41:24.976Z,60.68
2023-03-07T21:43:53.089Z,60.84
2023-03-07T21:46:22.813Z,60.74
2023-03-07T21:48:50.979Z,60.93
2023-03-07T21:51:19.288Z,60.99
2023-03-07T21:53:47.064Z,61.06
2023-03-07T21:56:17.692Z,60.83
2023-03-07T21:58:48.694Z,60.98
2023-03-07T22:01:18.975Z,60.95
2023-03-07T22:03:48.770Z,61.19
2023-03-07T22:06:17.293Z,61.42
2023-03-07T22:08:45.231Z,61.07
2023-03-07T22:11:14.299Z,61.02
2023-03-07T22:13:42.855Z,60.82
2023-03-07T22:16:13.036Z,61.30
2023-03-07T22:18:40.854Z,60.95
2023-03-07T22:21:13.555Z,61.50
2023-03-07T22:23:41.944Z,61.04
2023-03-07T22:26:12.271Z,61.08
2023-03-07T22:28:41.431Z,60.87
2023-03-07T22:31:11.741Z,61.33
2023-03-07T22:33:39.966Z,61.07
2023-03-07T22:36:12.438Z,61.27
2023-03-07T22:38:40.154Z,61.43
2023-03-07T22:41:10.818Z,61.14
2023-03-07T22:43:39.329Z,61.21
2023-03-07T22:46:08.914Z,61.14
2023-03-07T22:48:37.243Z,60.81
2023-03-07T22:51:05.373Z,61.20
2023-03-07T22:53:35.539Z,61.32
2023-03-07T22:56:03.311Z,61.24
2023-03-07T22:58:31.134Z,61.28
2023-03-07T23:00:58.898Z,61.37
2023-03-07T23:03:26.670Z,61.64
2023-03-07T23:05:59.900Z,61.24
2023-03-07T23:08:27.631Z,61.05
2023-03-07T23:11:02.739Z,61.23
2023-03-07T23:13:30.513Z,61.30
2023-03-07T23:15:58.415Z,60.97
2023-03-07T23:18:26.230Z,61.20
2023-03-07T23:20:53.949Z,61.20
2023-03-07T23:23:21.673Z,61.17
2023-03-07T23:25:49.424Z,61.29
2023-03-07T23:28:18.549Z,61.14
2023-03-07T23:30:46.327Z,61.27
2023-03-07T23:33:14.087Z,61.43
2023-03-07T23:35:41.922Z,61.10
2023-03-07T23:38:11.825Z,61.28
2023-03-07T23:40:39.505Z,61.32
2023-03-07T23:43:07.465Z,61.36
2023-03-07T23:45:36.533Z,61.16
2023-03-07T23:48:04.304Z,61.25
2023-03-07T23:50:32.090Z,61.24
2023-03-07T23:52:59.813Z,61.05
2023-03-07T23:55:27.488Z,61.37
2023-03-07T23:57:55.236Z,61.26
